Hampton, NH

11:21 PM EDT on September 27, 2016 (GMT -0400)
Towle Farm | | Change Station

Elev 56 ft 42.94 °N, 70.85 °W | Updated 10 minutes ago

Partly Cloudy
Partly Cloudy
55.8 °F
Feels Like 55.8 °F
N
0.0
Wind Variable Wind from WSW
Gusts 0.0 mph

Today
High -- | Low -- °F
--% Chance of Precip.
Yesterday
High -- | Low -- °F
Precip. -- in
Pressure 30.03 in
Visibility 10.0 miles
Clouds Few 2500 ft
Dew Point 55 °F
Humidity 96%
Rainfall 0.18 in
Snow Depth Not available.
6:36 AM 6:30 PM
Waning Crescent, 8% visible
METAR KPSM 280258Z 04003KT 10SM FEW025 14/13 A3002 RMK AO2A SLP168 T01380130 52024
Pressure 30.03 in
Visibility 10.0 miles
Clouds Few 2500 ft
Dew Point 55 °F
Humidity 96%
Rainfall 0.18 in
Snow Depth Not available.
6:36 AM 6:30 PM
Waning Crescent, 8% visible
METAR KPSM 280258Z 04003KT 10SM FEW025 14/13 A3002 RMK AO2A SLP168 T01380130 52024

10-Day Weather Forecast

Almanac

Astronomy

Sep. 27, 2016 Rise Set
Actual Time
Civil Twilight
Nautical Twilight
Astronomical Twilight
Moon
Length of Visible Light
Length of Day
Tomorrow will be .
, % of the Moon is Illuminated

Today's Extremes

State Highs State Lows

Community

WunderPhotos

Upload Photos

1,942,201 photos uploaded!

WunderBlog® & News

Nearby

Air Quality

  Air Quality AQ Index Pollutant
Not available.

Snow Depth

Station Depth Elevation

Earthquake Activity

City Distance Mag. Time & Date
Minimum magnitude displayed is 2.5.

Coastal Water Temperatures

Place Temperature

Stations

Nearby Weather Stations

Station Location Temp. Windchill Dew Point Humidity Wind Precip. Elev Updated Type
                   

Watches & Warnings

There are currently no watches in effect.